createdAt,value
2018-05-16T00:01:57.682Z,4.97
2018-05-16T00:04:26.146Z,4.77
2018-05-16T00:06:54.671Z,4.77
2018-05-16T00:09:22.883Z,5.00
2018-05-16T00:11:51.378Z,5.17
2018-05-16T00:14:19.592Z,4.80
2018-05-16T00:16:47.816Z,5.10
2018-05-16T00:19:16.017Z,5.03
2018-05-16T00:21:44.235Z,4.57
2018-05-16T00:24:12.442Z,5.07
2018-05-16T00:26:40.690Z,4.63
2018-05-16T00:29:08.886Z,5.17
2018-05-16T00:31:37.104Z,5.13
2018-05-16T00:34:05.305Z,5.13
2018-05-16T00:36:33.523Z,5.10
2018-05-16T00:39:01.727Z,5.30
2018-05-16T00:41:29.934Z,5.30
2018-05-16T00:43:58.169Z,5.23
2018-05-16T00:46:26.461Z,5.40
2018-05-16T00:48:54.677Z,6.30
2018-05-16T00:51:30.449Z,6.17
2018-05-16T00:53:58.676Z,6.73
2018-05-16T00:56:26.895Z,6.20
2018-05-16T00:58:55.122Z,6.53
2018-05-16T01:01:23.345Z,6.43
2018-05-16T01:03:51.571Z,6.27
2018-05-16T01:06:19.790Z,7.00
2018-05-16T01:08:47.989Z,7.63
2018-05-16T01:11:16.218Z,7.30
2018-05-16T01:13:44.422Z,7.37
2018-05-16T01:16:12.641Z,7.63
2018-05-16T01:18:40.839Z,7.90
2018-05-16T01:21:09.839Z,7.20
2018-05-16T01:23:38.827Z,7.30
2018-05-16T01:26:07.816Z,6.93
2018-05-16T01:28:36.035Z,7.03
2018-05-16T01:31:04.243Z,6.90
2018-05-16T01:33:32.457Z,6.70
2018-05-16T01:36:01.449Z,7.03
2018-05-16T01:38:30.417Z,7.13
2018-05-16T01:40:58.642Z,7.40
2018-05-16T01:43:26.859Z,7.27
2018-05-16T01:45:55.061Z,6.97
2018-05-16T01:48:24.051Z,7.50
2018-05-16T01:50:53.021Z,6.87
2018-05-16T01:53:21.241Z,7.20
2018-05-16T01:55:49.459Z,7.53
2018-05-16T01:58:17.683Z,6.40
2018-05-16T02:00:46.684Z,7.10
2018-05-16T02:03:14.906Z,7.20
2018-05-16T02:05:43.114Z,7.57
2018-05-16T02:08:12.094Z,7.93
2018-05-16T02:10:40.302Z,7.37
2018-05-16T02:13:08.520Z,7.97
2018-05-16T02:15:36.740Z,8.40
2018-05-16T02:18:05.722Z,8.43
2018-05-16T02:20:34.704Z,8.70
2018-05-16T02:23:02.935Z,9.50
2018-05-16T02:25:31.154Z,8.93
2018-05-16T02:27:59.377Z,9.03
2018-05-16T02:30:27.597Z,8.83
2018-05-16T02:32:55.800Z,9.13
2018-05-16T02:35:24.028Z,9.57
2018-05-16T02:37:52.233Z,8.73
2018-05-16T02:40:21.216Z,8.83
2018-05-16T02:42:49.438Z,10.27
2018-05-16T02:45:17.654Z,9.57
2018-05-16T02:47:45.874Z,9.13
2018-05-16T02:50:14.092Z,9.90
2018-05-16T02:52:42.321Z,9.63
2018-05-16T02:55:11.285Z,10.33
2018-05-16T02:57:39.991Z,10.00
2018-05-16T03:00:08.994Z,10.90
2018-05-16T03:02:37.235Z,9.17
2018-05-16T03:05:05.441Z,8.60
2018-05-16T03:07:34.556Z,9.33
2018-05-16T03:10:03.448Z,10.10
2018-05-16T03:12:31.670Z,10.40
2018-05-16T03:14:59.911Z,10.17
2018-05-16T03:17:28.127Z,10.67
2018-05-16T03:19:56.355Z,9.93
2018-05-16T03:22:24.631Z,10.33
2018-05-16T03:24:52.850Z,9.90
2018-05-16T03:27:21.083Z,9.00
2018-05-16T03:29:49.305Z,8.83
2018-05-16T03:32:17.517Z,9.60
2018-05-16T03:34:45.740Z,8.97
2018-05-16T03:37:13.956Z,9.40
2018-05-16T03:39:42.991Z,9.50
2018-05-16T03:42:11.211Z,9.97
2018-05-16T03:44:39.430Z,11.70
2018-05-16T03:47:07.667Z,12.07
2018-05-16T03:49:36.711Z,11.13
2018-05-16T03:52:05.030Z,12.27
2018-05-16T03:54:33.909Z,12.93
2018-05-16T03:57:02.139Z,14.67
2018-05-16T03:59:42.248Z,12.27
2018-05-16T04:02:22.365Z,12.37
2018-05-16T04:04:50.581Z,13.63
2018-05-16T04:07:19.595Z,12.27
2018-05-16T04:09:48.580Z,12.83
2018-05-16T04:12:16.798Z,13.30
2018-05-16T04:14:45.021Z,13.87
2018-05-16T04:17:13.278Z,13.53
2018-05-16T04:19:41.506Z,14.00
2018-05-16T04:22:09.743Z,14.53
2018-05-16T04:24:38.739Z,14.53
2018-05-16T04:27:07.719Z,14.77
2018-05-16T04:29:36.741Z,15.13
2018-05-16T04:32:05.083Z,15.47
2018-05-16T04:34:33.339Z,14.83
2018-05-16T04:37:01.555Z,15.57
2018-05-16T04:39:30.530Z,15.47
2018-05-16T04:41:58.779Z,17.00
2018-05-16T04:44:26.997Z,16.97
2018-05-16T04:46:55.986Z,17.27
2018-05-16T04:49:24.983Z,17.53
2018-05-16T04:51:53.978Z,16.97
2018-05-16T04:54:22.961Z,16.37
2018-05-16T04:56:51.959Z,16.13
2018-05-16T04:59:20.941Z,16.47
2018-05-16T05:01:49.158Z,16.43
2018-05-16T05:04:17.392Z,15.00
2018-05-16T05:06:45.631Z,14.63
2018-05-16T05:09:14.622Z,16.60
2018-05-16T05:11:42.847Z,14.90
2018-05-16T05:14:11.826Z,14.93
2018-05-16T05:16:40.101Z,17.23
2018-05-16T05:19:08.327Z,15.87
2018-05-16T05:21:36.560Z,16.10
2018-05-16T05:24:04.830Z,15.23
2018-05-16T05:26:33.034Z,15.17
2018-05-16T05:29:01.280Z,14.13
2018-05-16T05:31:29.506Z,13.93
2018-05-16T05:33:57.721Z,13.33
2018-05-16T05:36:25.952Z,14.70
2018-05-16T05:38:54.203Z,14.63
2018-05-16T05:41:23.191Z,15.03
2018-05-16T05:43:52.198Z,12.90
2018-05-16T05:46:20.439Z,11.83
2018-05-16T05:48:48.674Z,12.07
2018-05-16T05:51:16.910Z,11.63
2018-05-16T05:53:45.170Z,11.77
2018-05-16T05:58:47.916Z,9.40
2018-05-16T06:01:16.137Z,9.77
2018-05-16T06:03:44.414Z,10.23
2018-05-16T06:06:12.644Z,10.53
2018-05-16T06:08:40.856Z,9.07
2018-05-16T06:11:09.090Z,8.10
2018-05-16T06:13:37.322Z,7.87
2018-05-16T06:16:05.538Z,6.80
2018-05-16T06:18:33.765Z,6.90
2018-05-16T06:21:01.969Z,6.53
2018-05-16T06:23:30.192Z,5.93
2018-05-16T06:25:58.389Z,4.80
2018-05-16T06:28:26.612Z,6.23
2018-05-16T06:30:54.841Z,5.90
2018-05-16T06:33:23.075Z,5.00
2018-05-16T06:35:51.285Z,4.40
2018-05-16T06:38:19.520Z,4.03
2018-05-16T06:40:47.727Z,4.20
2018-05-16T06:43:15.937Z,3.80
2018-05-16T06:45:44.940Z,4.40
2018-05-16T06:48:13.184Z,4.27
2018-05-16T06:50:41.410Z,4.17
2018-05-16T06:53:09.635Z,6.00
2018-05-16T06:55:37.827Z,5.20
2018-05-16T06:58:06.813Z,4.73
2018-05-16T07:00:36.475Z,3.57
2018-05-16T07:03:04.707Z,2.97
2018-05-16T07:05:33.674Z,3.63
2018-05-16T07:08:01.903Z,3.67
2018-05-16T07:10:30.111Z,4.00
2018-05-16T07:12:58.325Z,3.90
2018-05-16T07:15:27.456Z,4.43
2018-05-16T07:17:55.671Z,4.17
2018-05-16T07:20:24.844Z,3.70
2018-05-16T07:22:53.077Z,3.83
2018-05-16T07:25:21.261Z,4.00
2018-05-16T07:27:49.474Z,4.07
2018-05-16T07:30:17.710Z,4.40
2018-05-16T07:32:45.947Z,3.97
2018-05-16T07:35:14.154Z,4.37
2018-05-16T07:37:42.370Z,4.00
2018-05-16T07:40:10.618Z,4.23
2018-05-16T07:42:38.875Z,4.40
2018-05-16T07:45:07.084Z,4.47
2018-05-16T07:47:35.296Z,6.60
2018-05-16T07:50:03.506Z,5.30
2018-05-16T07:52:32.496Z,5.30
2018-05-16T07:55:00.720Z,4.80
2018-05-16T07:57:28.934Z,5.40
2018-05-16T07:59:57.909Z,4.93
2018-05-16T08:02:26.122Z,5.87
2018-05-16T08:04:54.339Z,5.67
2018-05-16T08:07:22.573Z,5.60
2018-05-16T08:09:50.869Z,5.03
2018-05-16T08:12:19.172Z,5.93
2018-05-16T08:14:48.082Z,5.53
2018-05-16T08:17:17.056Z,5.67
2018-05-16T08:19:45.278Z,6.60
2018-05-16T08:22:13.500Z,6.17
2018-05-16T08:24:41.716Z,6.30
2018-05-16T08:27:10.802Z,6.30
2018-05-16T08:29:39.724Z,6.97
2018-05-16T08:32:07.924Z,5.87
2018-05-16T08:34:36.179Z,6.77
2018-05-16T08:37:04.395Z,5.77
2018-05-16T08:39:32.615Z,4.47
2018-05-16T08:42:01.611Z,4.60
2018-05-16T08:44:29.854Z,3.43
2018-05-16T08:46:58.092Z,3.50
2018-05-16T08:49:26.333Z,4.20
2018-05-16T08:51:55.297Z,4.30
2018-05-16T08:54:23.524Z,4.90
2018-05-16T08:56:51.831Z,4.57
2018-05-16T08:59:20.053Z,5.30
2018-05-16T09:01:48.283Z,5.57
2018-05-16T09:04:16.502Z,5.60
2018-05-16T09:06:44.767Z,5.30
2018-05-16T09:09:12.963Z,5.20
2018-05-16T09:11:41.212Z,5.60
2018-05-16T09:14:09.416Z,5.40
2018-05-16T09:16:37.625Z,5.53
2018-05-16T09:19:05.856Z,6.03
2018-05-16T09:21:34.078Z,6.17
2018-05-16T09:24:02.302Z,6.80
2018-05-16T09:26:30.518Z,6.20
2018-05-16T09:28:58.747Z,6.50
2018-05-16T09:31:27.731Z,6.30
2018-05-16T09:33:55.967Z,7.07
2018-05-16T09:36:24.200Z,8.07
2018-05-16T09:38:52.430Z,8.07
2018-05-16T09:41:20.650Z,7.67
2018-05-16T09:43:48.881Z,7.80
2018-05-16T09:46:17.091Z,7.47
2018-05-16T09:48:46.074Z,7.70
2018-05-16T09:51:15.066Z,7.87
2018-05-16T09:53:44.045Z,7.30
2018-05-16T09:56:12.285Z,7.47
2018-05-16T09:58:40.472Z,8.93
2018-05-16T10:01:08.711Z,8.07
2018-05-16T10:03:36.954Z,7.60
2018-05-16T10:06:05.945Z,7.17
2018-05-16T10:08:34.155Z,7.90
2018-05-16T10:11:02.380Z,7.57
2018-05-16T10:13:30.593Z,8.03
2018-05-16T10:15:59.572Z,7.87
2018-05-16T10:18:28.570Z,9.67
2018-05-16T10:20:57.542Z,7.00
2018-05-16T10:23:25.777Z,7.03
2018-05-16T10:25:54.005Z,7.23
2018-05-16T10:28:22.212Z,6.70
2018-05-16T10:30:50.435Z,6.90
2018-05-16T10:33:18.670Z,7.73
2018-05-16T10:35:46.903Z,6.73
2018-05-16T10:38:15.082Z,6.83
2018-05-16T10:40:44.079Z,7.90
2018-05-16T10:43:13.055Z,7.60
2018-05-16T10:45:41.274Z,8.43
2018-05-16T10:48:09.591Z,7.43
2018-05-16T10:50:37.782Z,7.97
2018-05-16T10:53:06.015Z,9.07
2018-05-16T10:55:34.248Z,9.50
2018-05-16T10:58:03.227Z,10.97
2018-05-16T11:00:31.492Z,9.03
2018-05-16T11:02:59.729Z,8.57
2018-05-16T11:05:27.953Z,7.73
2018-05-16T11:07:56.220Z,8.07
2018-05-16T11:10:24.430Z,7.63
2018-05-16T11:12:53.426Z,8.10
2018-05-16T11:15:21.654Z,7.13
2018-05-16T11:17:49.892Z,6.50
2018-05-16T11:20:18.095Z,6.37
2018-05-16T11:22:47.209Z,6.33
2018-05-16T11:25:15.430Z,5.60
2018-05-16T11:27:43.679Z,5.43
2018-05-16T11:30:12.079Z,5.50
2018-05-16T11:32:40.308Z,5.47
2018-05-16T11:35:08.530Z,5.33
2018-05-16T11:37:37.496Z,5.23
2018-05-16T11:40:05.755Z,7.33
2018-05-16T11:42:33.975Z,5.87
2018-05-16T11:45:02.942Z,6.77
2018-05-16T11:47:31.943Z,6.43
2018-05-16T11:50:00.134Z,6.23
2018-05-16T11:52:28.397Z,7.37
2018-05-16T11:54:56.648Z,7.73
2018-05-16T11:57:24.838Z,7.53
2018-05-16T11:59:53.831Z,7.97
2018-05-16T12:02:22.053Z,8.30
2018-05-16T12:04:50.278Z,6.43
2018-05-16T12:07:18.518Z,5.50
2018-05-16T12:09:46.726Z,5.10
2018-05-16T12:12:14.921Z,4.23
2018-05-16T12:14:43.242Z,3.83
2018-05-16T12:17:11.472Z,3.23
2018-05-16T12:19:39.711Z,3.93
2018-05-16T12:22:07.947Z,3.70
2018-05-16T12:24:36.170Z,3.27
2018-05-16T12:27:04.407Z,3.80
2018-05-16T12:29:32.616Z,3.10
2018-05-16T12:32:00.831Z,2.70
2018-05-16T12:34:29.110Z,2.97
2018-05-16T12:36:57.337Z,3.13
2018-05-16T12:39:25.617Z,3.90
2018-05-16T12:41:53.850Z,3.63
2018-05-16T12:44:22.074Z,4.67
2018-05-16T12:46:50.275Z,10.53
2018-05-16T12:49:18.733Z,4.97
2018-05-16T12:51:46.923Z,4.03
2018-05-16T12:54:15.986Z,3.90
2018-05-16T12:56:44.219Z,4.17
2018-05-16T12:59:12.466Z,3.87
2018-05-16T13:01:41.433Z,4.67
2018-05-16T13:04:09.661Z,4.77
2018-05-16T13:06:37.890Z,5.50
2018-05-16T13:09:06.095Z,4.77
2018-05-16T13:11:34.331Z,4.43
2018-05-16T13:14:02.710Z,4.83
2018-05-16T13:16:30.931Z,4.30
2018-05-16T13:18:59.162Z,5.20
2018-05-16T13:21:27.428Z,5.27
2018-05-16T13:23:55.646Z,5.47
2018-05-16T13:26:24.636Z,3.87
2018-05-16T13:28:53.624Z,4.47
2018-05-16T13:31:22.611Z,4.40
2018-05-16T13:33:51.590Z,4.60
2018-05-16T13:36:19.914Z,3.03
2018-05-16T13:38:48.047Z,3.80
2018-05-16T13:41:16.407Z,3.57
2018-05-16T13:43:44.590Z,3.63
2018-05-16T13:46:12.807Z,4.63
2018-05-16T13:48:41.037Z,5.30
2018-05-16T13:51:09.251Z,4.93
2018-05-16T13:53:38.226Z,4.60
2018-05-16T13:56:07.222Z,4.50
2018-05-16T13:58:36.207Z,3.37
2018-05-16T14:01:05.211Z,4.10
2018-05-16T14:03:34.199Z,3.23
2018-05-16T14:06:03.198Z,3.10
2018-05-16T14:08:32.173Z,3.10
2018-05-16T14:11:01.163Z,46.97
2018-05-16T14:13:29.460Z,2.70
2018-05-16T14:15:57.675Z,2.80
2018-05-16T14:18:25.893Z,3.30
2018-05-16T14:20:54.918Z,2.80
2018-05-16T14:23:23.135Z,2.40
2018-05-16T14:25:51.397Z,2.70
2018-05-16T14:28:19.633Z,3.23
2018-05-16T14:30:47.930Z,2.60
2018-05-16T14:33:16.893Z,3.37
2018-05-16T14:35:45.112Z,3.50
2018-05-16T14:38:13.345Z,3.70
2018-05-16T14:40:42.339Z,4.03
2018-05-16T14:43:11.360Z,4.63
2018-05-16T14:45:40.435Z,4.53
2018-05-16T14:48:08.660Z,4.70
2018-05-16T14:50:36.870Z,5.30
2018-05-16T14:53:05.864Z,5.50
2018-05-16T14:55:35.066Z,5.53
2018-05-16T14:58:03.202Z,5.30
2018-05-16T15:00:31.412Z,4.37
2018-05-16T15:02:59.632Z,4.10
2018-05-16T15:05:27.862Z,3.87
2018-05-16T15:07:56.076Z,4.00
2018-05-16T15:10:24.314Z,5.00
2018-05-16T15:12:53.286Z,4.50
2018-05-16T15:15:21.685Z,5.23
2018-05-16T15:17:50.649Z,5.30
2018-05-16T15:20:18.882Z,5.10
2018-05-16T15:22:47.092Z,5.17
2018-05-16T15:25:15.306Z,7.07
2018-05-16T15:27:44.369Z,6.33
2018-05-16T15:30:12.563Z,5.97
2018-05-16T15:32:40.768Z,6.83
2018-05-16T15:35:09.176Z,5.80
2018-05-16T15:37:37.417Z,6.17
2018-05-16T15:40:06.402Z,6.47
2018-05-16T15:42:35.388Z,5.73
2018-05-16T15:45:04.378Z,6.13
2018-05-16T15:47:32.615Z,6.83
2018-05-16T15:50:00.846Z,7.13
2018-05-16T15:52:29.079Z,6.57
2018-05-16T15:54:57.300Z,6.47
2018-05-16T15:57:25.551Z,8.07
2018-05-16T15:59:54.589Z,8.73
2018-05-16T16:02:22.799Z,9.87
2018-05-16T16:04:51.005Z,9.10
2018-05-16T16:07:20.017Z,6.47
2018-05-16T16:09:49.016Z,15.73
2018-05-16T16:12:17.303Z,11.17
2018-05-16T16:14:45.483Z,6.10
2018-05-16T16:17:13.906Z,5.67
2018-05-16T16:19:42.089Z,8.23
2018-05-16T16:22:11.141Z,6.20
2018-05-16T16:24:39.531Z,5.53
2018-05-16T16:27:07.804Z,6.00
2018-05-16T16:29:36.023Z,5.17
2018-05-16T16:32:05.774Z,4.97
2018-05-16T16:34:34.759Z,5.53
2018-05-16T16:37:03.003Z,5.77
2018-05-16T16:39:31.975Z,5.00
2018-05-16T16:42:00.431Z,5.07
2018-05-16T16:44:28.668Z,6.03
2018-05-16T16:46:56.867Z,6.40
2018-05-16T16:49:25.091Z,5.10
2018-05-16T16:51:53.306Z,4.93
2018-05-16T16:54:21.548Z,5.47
2018-05-16T16:56:50.520Z,4.57
2018-05-16T16:59:18.743Z,6.60
2018-05-16T17:01:46.968Z,7.43
2018-05-16T17:04:15.184Z,6.10
2018-05-16T17:06:43.416Z,6.57
2018-05-16T17:09:11.636Z,7.07
2018-05-16T17:11:39.859Z,8.03
2018-05-16T17:14:08.175Z,8.90
2018-05-16T17:16:36.358Z,11.30
2018-05-16T17:19:04.631Z,9.10
2018-05-16T17:21:32.891Z,6.20
2018-05-16T17:24:01.119Z,6.00
2018-05-16T17:26:29.359Z,4.47
2018-05-16T17:28:57.592Z,4.40
2018-05-16T17:31:25.833Z,4.53
2018-05-16T17:33:54.085Z,3.93
2018-05-16T17:36:23.070Z,3.80
2018-05-16T17:38:52.122Z,4.47
2018-05-16T17:41:20.347Z,4.40
2018-05-16T17:43:48.615Z,5.13
2018-05-16T17:46:17.613Z,4.50
2018-05-16T17:48:45.930Z,4.60
2018-05-16T17:51:14.462Z,4.83
2018-05-16T17:53:43.655Z,5.27
2018-05-16T17:56:11.804Z,4.83
2018-05-16T17:58:39.999Z,5.13
2018-05-16T18:01:09.019Z,5.47
2018-05-16T18:03:37.310Z,6.10
2018-05-16T18:06:06.268Z,7.73
2018-05-16T18:08:35.236Z,4.60
2018-05-16T18:11:03.508Z,4.60
2018-05-16T18:16:46.256Z,5.00
2018-05-16T18:19:15.506Z,5.10
2018-05-16T18:21:43.751Z,5.43
2018-05-16T18:24:12.731Z,5.90
2018-05-16T18:26:40.944Z,5.60
2018-05-16T18:29:09.163Z,5.60
2018-05-16T18:31:37.371Z,5.23
2018-05-16T18:34:06.425Z,5.97
2018-05-16T18:36:34.609Z,28.50
2018-05-16T18:39:02.904Z,25.00
2018-05-16T18:41:31.091Z,8.13
2018-05-16T18:43:59.328Z,8.80
2018-05-16T18:46:27.567Z,11.93
2018-05-16T18:48:55.779Z,19.93
2018-05-16T18:51:24.008Z,7.57
2018-05-16T18:53:52.242Z,6.30
2018-05-16T18:56:20.793Z,6.13
2018-05-16T18:58:49.035Z,6.37
2018-05-16T19:01:18.833Z,7.30
2018-05-16T19:03:47.070Z,9.47
2018-05-16T19:06:15.302Z,10.37
2018-05-16T19:08:44.577Z,11.03
2018-05-16T19:11:12.759Z,9.00
2018-05-16T19:13:41.923Z,7.30
2018-05-16T19:16:10.213Z,6.90
2018-05-16T19:18:38.486Z,6.53
2018-05-16T19:21:07.649Z,6.53
2018-05-16T19:23:35.943Z,6.97
2018-05-16T19:26:04.170Z,6.60
2018-05-16T19:28:32.397Z,6.33
2018-05-16T19:31:00.633Z,6.23
2018-05-16T19:33:28.883Z,6.60
2018-05-16T19:35:57.130Z,6.30
2018-05-16T19:38:25.431Z,6.30
2018-05-16T19:40:53.676Z,6.63
2018-05-16T19:43:22.647Z,5.90
2018-05-16T19:45:50.878Z,5.70
2018-05-16T19:48:19.927Z,5.53
2018-05-16T19:50:48.275Z,5.80
2018-05-16T19:53:16.498Z,6.17
2018-05-16T19:55:45.963Z,6.20
2018-05-16T19:58:14.327Z,6.70
2018-05-16T20:00:42.654Z,6.23
2018-05-16T20:03:11.097Z,6.50
2018-05-16T20:05:39.310Z,6.70
2018-05-16T20:08:07.579Z,6.80
2018-05-16T20:10:35.850Z,6.90
2018-05-16T20:13:04.070Z,6.87
2018-05-16T20:15:32.457Z,6.50
2018-05-16T20:18:01.415Z,6.73
2018-05-16T20:20:29.648Z,6.77
2018-05-16T20:22:57.875Z,6.57
2018-05-16T20:25:26.875Z,6.40
2018-05-16T20:27:55.075Z,7.17
2018-05-16T20:30:23.884Z,6.33
2018-05-16T20:32:52.106Z,6.80
2018-05-16T20:35:21.139Z,7.40
2018-05-16T20:37:49.491Z,6.87
2018-05-16T20:40:17.715Z,5.87
2018-05-16T20:42:45.944Z,6.10
2018-05-16T20:45:14.185Z,5.00
2018-05-16T20:47:42.454Z,5.40
2018-05-16T20:50:10.638Z,6.70
2018-05-16T20:52:38.884Z,6.10
2018-05-16T20:55:07.077Z,5.20
2018-05-16T20:57:35.331Z,4.90
2018-05-16T21:00:03.542Z,5.20
2018-05-16T21:02:31.727Z,5.40
2018-05-16T21:04:59.958Z,5.10
2018-05-16T21:07:28.177Z,5.80
2018-05-16T21:09:57.181Z,6.10
2018-05-16T21:12:26.153Z,5.00
2018-05-16T21:14:54.402Z,5.00
2018-05-16T21:17:22.614Z,5.47
2018-05-16T21:19:50.902Z,5.50
2018-05-16T21:22:19.171Z,5.07
2018-05-16T21:24:47.398Z,5.10
2018-05-16T21:27:15.635Z,5.50
2018-05-16T21:29:44.623Z,4.83
2018-05-16T21:32:13.608Z,6.37
2018-05-16T21:34:42.583Z,8.13
2018-05-16T21:37:10.897Z,6.10
2018-05-16T21:39:39.053Z,5.97
2018-05-16T21:42:08.030Z,6.80
2018-05-16T21:44:36.247Z,8.37
2018-05-16T21:47:04.503Z,8.53
2018-05-16T21:49:32.730Z,7.23
2018-05-16T21:52:00.973Z,6.73
2018-05-16T21:54:29.191Z,7.50
2018-05-16T21:56:57.419Z,10.57
2018-05-16T21:59:25.638Z,9.87
2018-05-16T22:01:53.853Z,7.83
2018-05-16T22:04:22.070Z,7.80
2018-05-16T22:06:50.296Z,7.30
2018-05-16T22:09:19.294Z,9.60
2018-05-16T22:11:47.512Z,6.90
2018-05-16T22:14:15.747Z,7.90
2018-05-16T22:16:43.971Z,24.13
2018-05-16T22:19:12.198Z,10.03
2018-05-16T22:21:40.421Z,7.33
2018-05-16T22:24:08.658Z,7.70
2018-05-16T22:26:36.863Z,8.03
2018-05-16T22:29:05.101Z,15.03
2018-05-16T22:31:38.893Z,7.93
2018-05-16T22:34:13.467Z,10.83
2018-05-16T22:36:47.357Z,7.63
2018-05-16T22:39:21.288Z,8.33
2018-05-16T22:41:55.042Z,8.13
2018-05-16T22:44:29.599Z,19.40
2018-05-16T22:46:57.813Z,9.63
2018-05-16T22:49:26.822Z,9.30
2018-05-16T22:51:55.835Z,7.63
2018-05-16T22:54:24.024Z,8.57
2018-05-16T22:56:52.366Z,7.90
2018-05-16T22:59:20.640Z,8.17
2018-05-16T23:01:48.825Z,8.00
2018-05-16T23:04:17.013Z,8.40
2018-05-16T23:06:45.265Z,7.90
2018-05-16T23:09:13.540Z,7.80
2018-05-16T23:11:41.761Z,8.60
2018-05-16T23:14:09.978Z,8.10
2018-05-16T23:16:38.262Z,8.57
2018-05-16T23:19:06.512Z,9.00
2018-05-16T23:21:34.719Z,9.40
2018-05-16T23:24:02.931Z,9.20
2018-05-16T23:26:31.139Z,8.93
2018-05-16T23:28:59.373Z,9.23
2018-05-16T23:31:27.602Z,9.13
2018-05-16T23:33:55.995Z,8.63
2018-05-16T23:36:24.240Z,9.47
2018-05-16T23:38:52.455Z,9.13
2018-05-16T23:41:21.462Z,8.53
2018-05-16T23:43:49.683Z,8.37
2018-05-16T23:46:17.899Z,8.37
2018-05-16T23:48:46.887Z,8.07
2018-05-16T23:51:15.877Z,7.63
2018-05-16T23:53:44.899Z,7.50
2018-05-16T23:56:13.862Z,8.37
2018-05-16T23:58:42.854Z,7.87
